sensor_id;sensor_type;location;lat;lon;timestamp;temperature;humidity
23116;DHT22;11727;52.134;5.052;2022-07-04T00:00:42;15.50;99.90
23116;DHT22;11727;52.134;5.052;2022-07-04T00:03:07;15.50;99.90
23116;DHT22;11727;52.134;5.052;2022-07-04T00:05:33;15.50;99.90
23116;DHT22;11727;52.134;5.052;2022-07-04T00:07:59;15.50;99.90
23116;DHT22;11727;52.134;5.052;2022-07-04T00:10:24;15.50;99.90
23116;DHT22;11727;52.134;5.052;2022-07-04T00:12:50;15.50;99.90
23116;DHT22;11727;52.134;5.052;2022-07-04T00:15:16;15.50;99.90
23116;DHT22;11727;52.134;5.052;2022-07-04T00:17:42;15.40;99.90
23116;DHT22;11727;52.134;5.052;2022-07-04T00:20:09;15.40;99.90
23116;DHT22;11727;52.134;5.052;2022-07-04T00:22:35;15.40;99.90
23116;DHT22;11727;52.134;5.052;2022-07-04T00:25:01;15.40;99.90
23116;DHT22;11727;52.134;5.052;2022-07-04T00:27:26;15.40;99.90
23116;DHT22;11727;52.134;5.052;2022-07-04T00:29:52;15.40;99.90
23116;DHT22;11727;52.134;5.052;2022-07-04T00:32:18;15.40;99.90
23116;DHT22;11727;52.134;5.052;2022-07-04T00:34:44;15.40;99.90
23116;DHT22;11727;52.134;5.052;2022-07-04T00:37:09;15.40;99.90
23116;DHT22;11727;52.134;5.052;2022-07-04T00:39:35;15.30;99.90
23116;DHT22;11727;52.134;5.052;2022-07-04T00:42:01;15.30;99.90
23116;DHT22;11727;52.134;5.052;2022-07-04T00:44:27;15.30;99.90
23116;DHT22;11727;52.134;5.052;2022-07-04T00:46:52;15.30;99.90
23116;DHT22;11727;52.134;5.052;2022-07-04T00:49:18;15.20;99.90
23116;DHT22;11727;52.134;5.052;2022-07-04T00:51:45;15.20;99.90
23116;DHT22;11727;52.134;5.052;2022-07-04T00:54:13;15.20;99.90
23116;DHT22;11727;52.134;5.052;2022-07-04T00:56:40;15.20;99.90
23116;DHT22;11727;52.134;5.052;2022-07-04T00:59:06;15.10;99.90
23116;DHT22;11727;52.134;5.052;2022-07-04T01:01:33;15.10;99.90
23116;DHT22;11727;52.134;5.052;2022-07-04T01:03:58;15.10;99.90
23116;DHT22;11727;52.134;5.052;2022-07-04T01:06:24;15.00;99.90
23116;DHT22;11727;52.134;5.052;2022-07-04T01:08:53;15.00;99.90
23116;DHT22;11727;52.134;5.052;2022-07-04T01:11:19;15.00;99.90
23116;DHT22;11727;52.134;5.052;2022-07-04T01:13:44;15.00;99.90
23116;DHT22;11727;52.134;5.052;2022-07-04T01:16:11;15.00;99.90
23116;DHT22;11727;52.134;5.052;2022-07-04T01:18:37;15.00;99.90
23116;DHT22;11727;52.134;5.052;2022-07-04T01:21:03;14.90;99.90
23116;DHT22;11727;52.134;5.052;2022-07-04T01:23:29;14.90;99.90
23116;DHT22;11727;52.134;5.052;2022-07-04T01:25:56;14.90;99.90
23116;DHT22;11727;52.134;5.052;2022-07-04T01:28:23;14.90;99.90
23116;DHT22;11727;52.134;5.052;2022-07-04T01:30:49;14.90;99.90
23116;DHT22;11727;52.134;5.052;2022-07-04T01:33:15;14.90;99.90
23116;DHT22;11727;52.134;5.052;2022-07-04T01:35:43;14.80;99.90
23116;DHT22;11727;52.134;5.052;2022-07-04T01:38:09;14.80;99.90
23116;DHT22;11727;52.134;5.052;2022-07-04T01:40:37;14.70;99.90
23116;DHT22;11727;52.134;5.052;2022-07-04T01:43:03;14.70;99.90
23116;DHT22;11727;52.134;5.052;2022-07-04T01:45:29;14.70;99.90
23116;DHT22;11727;52.134;5.052;2022-07-04T01:47:55;14.70;99.90
23116;DHT22;11727;52.134;5.052;2022-07-04T01:50:21;14.70;99.90
23116;DHT22;11727;52.134;5.052;2022-07-04T01:52:46;14.70;99.90
23116;DHT22;11727;52.134;5.052;2022-07-04T01:55:13;14.70;99.90
23116;DHT22;11727;52.134;5.052;2022-07-04T01:57:39;14.70;99.90
23116;DHT22;11727;52.134;5.052;2022-07-04T02:00:07;14.70;99.90
23116;DHT22;11727;52.134;5.052;2022-07-04T02:02:52;14.70;99.90
23116;DHT22;11727;52.134;5.052;2022-07-04T02:05:21;14.70;99.90
23116;DHT22;11727;52.134;5.052;2022-07-04T02:07:48;14.70;99.90
23116;DHT22;11727;52.134;5.052;2022-07-04T02:10:13;14.70;99.90
23116;DHT22;11727;52.134;5.052;2022-07-04T02:12:39;14.70;99.90
23116;DHT22;11727;52.134;5.052;2022-07-04T02:15:50;14.70;99.90
23116;DHT22;11727;52.134;5.052;2022-07-04T02:18:15;14.70;99.90
23116;DHT22;11727;52.134;5.052;2022-07-04T02:20:41;14.70;99.90
23116;DHT22;11727;52.134;5.052;2022-07-04T02:23:07;14.70;99.90
23116;DHT22;11727;52.134;5.052;2022-07-04T02:25:33;14.70;99.90
23116;DHT22;11727;52.134;5.052;2022-07-04T02:27:58;14.70;99.90
23116;DHT22;11727;52.134;5.052;2022-07-04T02:30:27;14.70;99.90
23116;DHT22;11727;52.134;5.052;2022-07-04T02:32:53;14.70;99.90
23116;DHT22;11727;52.134;5.052;2022-07-04T02:35:18;14.70;99.90
23116;DHT22;11727;52.134;5.052;2022-07-04T02:37:44;14.80;99.90
23116;DHT22;11727;52.134;5.052;2022-07-04T02:40:10;14.70;99.90
23116;DHT22;11727;52.134;5.052;2022-07-04T02:42:36;14.70;99.90
23116;DHT22;11727;52.134;5.052;2022-07-04T02:45:02;14.70;99.90
23116;DHT22;11727;52.134;5.052;2022-07-04T02:47:28;14.70;99.90
23116;DHT22;11727;52.134;5.052;2022-07-04T02:49:54;14.70;99.90
23116;DHT22;11727;52.134;5.052;2022-07-04T02:52:19;14.70;99.90
23116;DHT22;11727;52.134;5.052;2022-07-04T02:54:45;14.70;99.90
23116;DHT22;11727;52.134;5.052;2022-07-04T02:57:12;14.70;99.90
23116;DHT22;11727;52.134;5.052;2022-07-04T02:59:37;14.70;99.90
23116;DHT22;11727;52.134;5.052;2022-07-04T03:02:03;14.70;99.90
23116;DHT22;11727;52.134;5.052;2022-07-04T03:04:29;14.70;99.90
23116;DHT22;11727;52.134;5.052;2022-07-04T03:06:55;14.70;99.90
23116;DHT22;11727;52.134;5.052;2022-07-04T03:09:20;14.70;99.90
23116;DHT22;11727;52.134;5.052;2022-07-04T03:11:46;14.70;99.90
23116;DHT22;11727;52.134;5.052;2022-07-04T03:14:11;14.70;99.90
23116;DHT22;11727;52.134;5.052;2022-07-04T03:16:37;14.70;99.90
23116;DHT22;11727;52.134;5.052;2022-07-04T03:19:03;14.70;99.90
23116;DHT22;11727;52.134;5.052;2022-07-04T03:21:29;14.80;99.90
23116;DHT22;11727;52.134;5.052;2022-07-04T03:23:54;14.80;99.90
23116;DHT22;11727;52.134;5.052;2022-07-04T03:26:30;14.80;99.90
23116;DHT22;11727;52.134;5.052;2022-07-04T03:28:57;14.80;99.90
23116;DHT22;11727;52.134;5.052;2022-07-04T03:31:23;14.80;99.90
23116;DHT22;11727;52.134;5.052;2022-07-04T03:33:49;14.80;99.90
23116;DHT22;11727;52.134;5.052;2022-07-04T03:36:15;14.80;99.90
23116;DHT22;11727;52.134;5.052;2022-07-04T03:38:41;14.80;99.90
23116;DHT22;11727;52.134;5.052;2022-07-04T03:41:07;14.80;99.90
23116;DHT22;11727;52.134;5.052;2022-07-04T03:43:32;14.80;99.90
23116;DHT22;11727;52.134;5.052;2022-07-04T03:45:58;14.80;99.90
23116;DHT22;11727;52.134;5.052;2022-07-04T03:48:24;14.80;99.90
23116;DHT22;11727;52.134;5.052;2022-07-04T03:50:49;14.80;99.90
23116;DHT22;11727;52.134;5.052;2022-07-04T03:53:15;14.80;99.90
23116;DHT22;11727;52.134;5.052;2022-07-04T03:55:41;14.90;99.90
23116;DHT22;11727;52.134;5.052;2022-07-04T03:58:07;14.90;99.90
23116;DHT22;11727;52.134;5.052;2022-07-04T04:00:33;14.90;99.90
23116;DHT22;11727;52.134;5.052;2022-07-04T04:02:58;15.00;99.90
23116;DHT22;11727;52.134;5.052;2022-07-04T04:05:24;15.00;99.90
23116;DHT22;11727;52.134;5.052;2022-07-04T04:08:00;15.00;99.90
23116;DHT22;11727;52.134;5.052;2022-07-04T04:10:28;15.00;99.90
23116;DHT22;11727;52.134;5.052;2022-07-04T04:12:54;15.00;99.90
23116;DHT22;11727;52.134;5.052;2022-07-04T04:15:20;15.00;99.90
23116;DHT22;11727;52.134;5.052;2022-07-04T04:17:46;15.00;99.90
23116;DHT22;11727;52.134;5.052;2022-07-04T04:20:11;15.10;99.90
23116;DHT22;11727;52.134;5.052;2022-07-04T04:22:37;15.10;99.90
23116;DHT22;11727;52.134;5.052;2022-07-04T04:25:03;15.10;99.90
23116;DHT22;11727;52.134;5.052;2022-07-04T04:27:28;15.20;99.90
23116;DHT22;11727;52.134;5.052;2022-07-04T04:29:54;15.10;99.90
23116;DHT22;11727;52.134;5.052;2022-07-04T04:32:20;15.20;99.90
23116;DHT22;11727;52.134;5.052;2022-07-04T04:34:45;15.20;99.90
23116;DHT22;11727;52.134;5.052;2022-07-04T04:37:11;15.30;99.90
23116;DHT22;11727;52.134;5.052;2022-07-04T04:39:37;15.20;99.90
23116;DHT22;11727;52.134;5.052;2022-07-04T04:42:03;15.30;99.90
23116;DHT22;11727;52.134;5.052;2022-07-04T04:44:28;15.30;99.90
23116;DHT22;11727;52.134;5.052;2022-07-04T04:46:54;15.30;99.90
23116;DHT22;11727;52.134;5.052;2022-07-04T04:49:19;15.30;99.90
23116;DHT22;11727;52.134;5.052;2022-07-04T04:51:45;15.40;99.90
23116;DHT22;11727;52.134;5.052;2022-07-04T04:54:11;15.40;99.90
23116;DHT22;11727;52.134;5.052;2022-07-04T04:56:36;15.40;99.90
23116;DHT22;11727;52.134;5.052;2022-07-04T04:59:02;15.40;99.90
23116;DHT22;11727;52.134;5.052;2022-07-04T05:01:30;15.50;99.90
23116;DHT22;11727;52.134;5.052;2022-07-04T05:03:56;15.40;99.90
23116;DHT22;11727;52.134;5.052;2022-07-04T05:06:21;15.50;99.90
23116;DHT22;11727;52.134;5.052;2022-07-04T05:08:47;15.50;99.90
23116;DHT22;11727;52.134;5.052;2022-07-04T05:11:13;15.60;99.90
23116;DHT22;11727;52.134;5.052;2022-07-04T05:13:39;15.60;99.90
23116;DHT22;11727;52.134;5.052;2022-07-04T05:16:05;15.60;99.90
23116;DHT22;11727;52.134;5.052;2022-07-04T05:18:30;15.70;99.90
23116;DHT22;11727;52.134;5.052;2022-07-04T05:20:58;15.80;99.90
23116;DHT22;11727;52.134;5.052;2022-07-04T05:23:23;15.80;99.90
23116;DHT22;11727;52.134;5.052;2022-07-04T05:25:49;15.90;99.90
23116;DHT22;11727;52.134;5.052;2022-07-04T05:28:15;15.90;99.90
23116;DHT22;11727;52.134;5.052;2022-07-04T05:30:40;15.90;99.90
23116;DHT22;11727;52.134;5.052;2022-07-04T05:33:06;15.90;99.90
23116;DHT22;11727;52.134;5.052;2022-07-04T05:35:31;15.90;99.90
23116;DHT22;11727;52.134;5.052;2022-07-04T05:38:00;16.00;99.90
23116;DHT22;11727;52.134;5.052;2022-07-04T05:40:26;16.00;99.90
23116;DHT22;11727;52.134;5.052;2022-07-04T05:42:51;16.10;99.90
23116;DHT22;11727;52.134;5.052;2022-07-04T05:45:17;16.10;99.90
23116;DHT22;11727;52.134;5.052;2022-07-04T05:47:43;16.20;99.90
23116;DHT22;11727;52.134;5.052;2022-07-04T05:50:09;16.20;99.90
23116;DHT22;11727;52.134;5.052;2022-07-04T05:52:35;16.20;99.90
23116;DHT22;11727;52.134;5.052;2022-07-04T05:55:01;16.30;99.90
23116;DHT22;11727;52.134;5.052;2022-07-04T05:57:26;16.30;99.90
23116;DHT22;11727;52.134;5.052;2022-07-04T05:59:53;16.30;99.90
23116;DHT22;11727;52.134;5.052;2022-07-04T06:02:18;16.40;99.90
23116;DHT22;11727;52.134;5.052;2022-07-04T06:04:44;16.40;99.90
23116;DHT22;11727;52.134;5.052;2022-07-04T06:07:10;16.50;99.90
23116;DHT22;11727;52.134;5.052;2022-07-04T06:09:36;16.50;99.90
23116;DHT22;11727;52.134;5.052;2022-07-04T06:12:03;16.50;99.90
23116;DHT22;11727;52.134;5.052;2022-07-04T06:14:28;16.50;99.90
23116;DHT22;11727;52.134;5.052;2022-07-04T06:16:54;16.50;99.90
23116;DHT22;11727;52.134;5.052;2022-07-04T06:19:19;16.60;99.90
23116;DHT22;11727;52.134;5.052;2022-07-04T06:21:46;16.80;99.90
23116;DHT22;11727;52.134;5.052;2022-07-04T06:24:11;16.90;99.90
23116;DHT22;11727;52.134;5.052;2022-07-04T06:26:37;17.00;99.90
23116;DHT22;11727;52.134;5.052;2022-07-04T06:29:03;17.20;99.90
23116;DHT22;11727;52.134;5.052;2022-07-04T06:31:29;17.30;99.90
23116;DHT22;11727;52.134;5.052;2022-07-04T06:33:54;17.50;99.90
23116;DHT22;11727;52.134;5.052;2022-07-04T06:36:39;17.60;99.90
23116;DHT22;11727;52.134;5.052;2022-07-04T06:39:04;17.70;99.90
23116;DHT22;11727;52.134;5.052;2022-07-04T06:41:30;17.80;99.90
23116;DHT22;11727;52.134;5.052;2022-07-04T06:43:56;17.90;99.90
23116;DHT22;11727;52.134;5.052;2022-07-04T06:46:21;18.00;99.90
23116;DHT22;11727;52.134;5.052;2022-07-04T06:48:47;18.10;99.90
23116;DHT22;11727;52.134;5.052;2022-07-04T06:51:13;18.20;99.90
23116;DHT22;11727;52.134;5.052;2022-07-04T06:53:41;18.40;99.90
23116;DHT22;11727;52.134;5.052;2022-07-04T06:56:07;18.50;99.90
23116;DHT22;11727;52.134;5.052;2022-07-04T06:58:35;18.60;99.90
23116;DHT22;11727;52.134;5.052;2022-07-04T07:01:01;18.80;99.90
23116;DHT22;11727;52.134;5.052;2022-07-04T07:03:26;19.00;99.90
23116;DHT22;11727;52.134;5.052;2022-07-04T07:05:55;19.10;99.90
23116;DHT22;11727;52.134;5.052;2022-07-04T07:08:22;19.20;99.90
23116;DHT22;11727;52.134;5.052;2022-07-04T07:10:48;19.30;99.90
23116;DHT22;11727;52.134;5.052;2022-07-04T07:13:14;19.40;99.90
23116;DHT22;11727;52.134;5.052;2022-07-04T07:15:39;19.50;99.90
23116;DHT22;11727;52.134;5.052;2022-07-04T07:18:05;19.50;99.90
23116;DHT22;11727;52.134;5.052;2022-07-04T07:20:31;19.50;99.90
23116;DHT22;11727;52.134;5.052;2022-07-04T07:22:57;19.70;99.90
23116;DHT22;11727;52.134;5.052;2022-07-04T07:25:23;19.80;99.90
23116;DHT22;11727;52.134;5.052;2022-07-04T07:27:48;19.90;99.90
23116;DHT22;11727;52.134;5.052;2022-07-04T07:30:14;19.90;99.90
23116;DHT22;11727;52.134;5.052;2022-07-04T07:32:40;20.00;99.90
23116;DHT22;11727;52.134;5.052;2022-07-04T07:35:06;20.10;99.90
23116;DHT22;11727;52.134;5.052;2022-07-04T07:37:31;19.90;99.90
23116;DHT22;11727;52.134;5.052;2022-07-04T07:39:57;19.80;99.90
23116;DHT22;11727;52.134;5.052;2022-07-04T07:42:24;19.70;99.90
23116;DHT22;11727;52.134;5.052;2022-07-04T07:44:49;19.70;99.90
23116;DHT22;11727;52.134;5.052;2022-07-04T07:47:15;19.80;99.90
23116;DHT22;11727;52.134;5.052;2022-07-04T07:49:43;20.00;99.90
23116;DHT22;11727;52.134;5.052;2022-07-04T07:52:10;20.30;99.90
23116;DHT22;11727;52.134;5.052;2022-07-04T07:54:36;20.50;99.90
23116;DHT22;11727;52.134;5.052;2022-07-04T07:57:02;20.70;99.90
23116;DHT22;11727;52.134;5.052;2022-07-04T07:59:30;20.90;99.90
23116;DHT22;11727;52.134;5.052;2022-07-04T08:01:56;20.90;99.90
23116;DHT22;11727;52.134;5.052;2022-07-04T08:04:21;21.00;99.90
23116;DHT22;11727;52.134;5.052;2022-07-04T08:07:09;21.00;99.90
23116;DHT22;11727;52.134;5.052;2022-07-04T08:09:36;21.00;99.90
23116;DHT22;11727;52.134;5.052;2022-07-04T08:12:04;21.00;99.90
23116;DHT22;11727;52.134;5.052;2022-07-04T08:14:29;21.10;99.90
23116;DHT22;11727;52.134;5.052;2022-07-04T08:16:57;21.00;99.90
23116;DHT22;11727;52.134;5.052;2022-07-04T08:19:23;21.00;99.90
23116;DHT22;11727;52.134;5.052;2022-07-04T08:21:50;21.10;99.90
23116;DHT22;11727;52.134;5.052;2022-07-04T08:24:16;21.20;99.90
23116;DHT22;11727;52.134;5.052;2022-07-04T08:26:42;21.30;99.90
23116;DHT22;11727;52.134;5.052;2022-07-04T08:29:08;21.30;99.90
23116;DHT22;11727;52.134;5.052;2022-07-04T08:31:33;21.30;99.90
23116;DHT22;11727;52.134;5.052;2022-07-04T08:33:59;21.40;99.90
23116;DHT22;11727;52.134;5.052;2022-07-04T08:36:25;21.50;99.90
23116;DHT22;11727;52.134;5.052;2022-07-04T08:38:50;21.50;99.90
23116;DHT22;11727;52.134;5.052;2022-07-04T08:41:17;21.70;99.90
23116;DHT22;11727;52.134;5.052;2022-07-04T08:43:47;21.80;99.90
23116;DHT22;11727;52.134;5.052;2022-07-04T08:46:15;21.80;99.90
23116;DHT22;11727;52.134;5.052;2022-07-04T08:48:51;21.80;99.90
23116;DHT22;11727;52.134;5.052;2022-07-04T08:51:43;21.90;99.90
23116;DHT22;11727;52.134;5.052;2022-07-04T08:54:09;21.90;99.90
23116;DHT22;11727;52.134;5.052;2022-07-04T08:56:55;21.70;99.90
23116;DHT22;11727;52.134;5.052;2022-07-04T08:59:40;21.50;99.90
23116;DHT22;11727;52.134;5.052;2022-07-04T09:02:11;21.30;99.90
23116;DHT22;11727;52.134;5.052;2022-07-04T09:04:39;21.20;99.90
23116;DHT22;11727;52.134;5.052;2022-07-04T09:07:05;21.10;99.90
23116;DHT22;11727;52.134;5.052;2022-07-04T09:09:33;21.10;99.90
23116;DHT22;11727;52.134;5.052;2022-07-04T09:11:58;21.10;99.90
23116;DHT22;11727;52.134;5.052;2022-07-04T09:14:24;21.20;99.90
23116;DHT22;11727;52.134;5.052;2022-07-04T09:16:50;21.40;99.90
23116;DHT22;11727;52.134;5.052;2022-07-04T09:19:20;21.60;99.90
23116;DHT22;11727;52.134;5.052;2022-07-04T09:21:47;21.60;99.90
23116;DHT22;11727;52.134;5.052;2022-07-04T09:24:13;21.70;99.90
23116;DHT22;11727;52.134;5.052;2022-07-04T09:26:46;21.60;99.90
23116;DHT22;11727;52.134;5.052;2022-07-04T09:29:12;21.50;99.90
23116;DHT22;11727;52.134;5.052;2022-07-04T09:31:38;21.50;99.90
23116;DHT22;11727;52.134;5.052;2022-07-04T09:34:06;21.40;99.90
23116;DHT22;11727;52.134;5.052;2022-07-04T09:36:33;21.40;99.90
23116;DHT22;11727;52.134;5.052;2022-07-04T09:41:32;21.60;99.90
23116;DHT22;11727;52.134;5.052;2022-07-04T09:44:14;21.70;99.90
23116;DHT22;11727;52.134;5.052;2022-07-04T09:46:39;21.80;99.90
23116;DHT22;11727;52.134;5.052;2022-07-04T09:49:05;21.90;99.90
23116;DHT22;11727;52.134;5.052;2022-07-04T09:51:39;22.20;99.90
23116;DHT22;11727;52.134;5.052;2022-07-04T09:54:14;22.40;99.90
23116;DHT22;11727;52.134;5.052;2022-07-04T09:56:41;22.50;99.90
23116;DHT22;11727;52.134;5.052;2022-07-04T09:59:07;22.70;99.90
23116;DHT22;11727;52.134;5.052;2022-07-04T10:01:33;22.60;99.90
23116;DHT22;11727;52.134;5.052;2022-07-04T10:03:58;22.60;99.90
23116;DHT22;11727;52.134;5.052;2022-07-04T10:06:25;22.60;99.90
23116;DHT22;11727;52.134;5.052;2022-07-04T10:08:50;22.50;99.90
23116;DHT22;11727;52.134;5.052;2022-07-04T10:11:16;22.50;99.90
23116;DHT22;11727;52.134;5.052;2022-07-04T10:13:44;22.50;99.90
23116;DHT22;11727;52.134;5.052;2022-07-04T10:16:10;22.60;99.90
23116;DHT22;11727;52.134;5.052;2022-07-04T10:18:37;22.60;99.90
23116;DHT22;11727;52.134;5.052;2022-07-04T10:21:02;22.70;99.90
23116;DHT22;11727;52.134;5.052;2022-07-04T10:23:28;22.60;99.90
23116;DHT22;11727;52.134;5.052;2022-07-04T10:25:57;22.70;99.90
23116;DHT22;11727;52.134;5.052;2022-07-04T10:28:23;22.90;99.90
23116;DHT22;11727;52.134;5.052;2022-07-04T10:30:54;23.10;99.90
23116;DHT22;11727;52.134;5.052;2022-07-04T10:33:28;23.20;99.90
23116;DHT22;11727;52.134;5.052;2022-07-04T10:35:56;23.20;99.90
23116;DHT22;11727;52.134;5.052;2022-07-04T10:38:30;23.20;99.90
23116;DHT22;11727;52.134;5.052;2022-07-04T10:41:08;23.20;99.90
23116;DHT22;11727;52.134;5.052;2022-07-04T10:51:14;23.70;99.90
23116;DHT22;11727;52.134;5.052;2022-07-04T10:56:44;23.70;99.90
23116;DHT22;11727;52.134;5.052;2022-07-04T11:05:05;23.80;99.90
23116;DHT22;11727;52.134;5.052;2022-07-04T11:13:06;24.00;99.90
23116;DHT22;11727;52.134;5.052;2022-07-04T11:18:05;24.00;99.90
23116;DHT22;11727;52.134;5.052;2022-07-04T11:20:34;23.90;99.90
23116;DHT22;11727;52.134;5.052;2022-07-04T11:23:10;23.90;99.90
23116;DHT22;11727;52.134;5.052;2022-07-04T11:25:36;24.00;99.90
23116;DHT22;11727;52.134;5.052;2022-07-04T11:30:52;24.20;99.90
23116;DHT22;11727;52.134;5.052;2022-07-04T11:33:20;24.40;99.90
23116;DHT22;11727;52.134;5.052;2022-07-04T11:36:04;24.40;99.90
23116;DHT22;11727;52.134;5.052;2022-07-04T11:41:17;24.50;99.90
23116;DHT22;11727;52.134;5.052;2022-07-04T11:44:07;24.60;99.90
23116;DHT22;11727;52.134;5.052;2022-07-04T11:47:05;24.60;99.90
23116;DHT22;11727;52.134;5.052;2022-07-04T11:49:32;24.60;99.90
23116;DHT22;11727;52.134;5.052;2022-07-04T11:51:58;24.60;99.90
23116;DHT22;11727;52.134;5.052;2022-07-04T11:54:23;24.60;99.90
23116;DHT22;11727;52.134;5.052;2022-07-04T11:56:49;24.60;99.90
23116;DHT22;11727;52.134;5.052;2022-07-04T11:59:16;24.60;99.90
23116;DHT22;11727;52.134;5.052;2022-07-04T12:01:46;24.60;99.90
23116;DHT22;11727;52.134;5.052;2022-07-04T12:04:14;24.60;99.90
23116;DHT22;11727;52.134;5.052;2022-07-04T12:06:40;24.50;99.90
23116;DHT22;11727;52.134;5.052;2022-07-04T12:09:06;24.50;99.90
23116;DHT22;11727;52.134;5.052;2022-07-04T12:11:55;24.40;99.90
23116;DHT22;11727;52.134;5.052;2022-07-04T12:14:22;24.20;99.90
23116;DHT22;11727;52.134;5.052;2022-07-04T12:16:47;24.00;99.90
23116;DHT22;11727;52.134;5.052;2022-07-04T12:19:13;23.80;99.90
23116;DHT22;11727;52.134;5.052;2022-07-04T12:21:41;23.80;99.90
23116;DHT22;11727;52.134;5.052;2022-07-04T12:24:07;23.90;99.90
23116;DHT22;11727;52.134;5.052;2022-07-04T12:26:34;24.00;99.90
23116;DHT22;11727;52.134;5.052;2022-07-04T12:29:00;24.10;99.90
23116;DHT22;11727;52.134;5.052;2022-07-04T12:31:42;24.20;99.90
23116;DHT22;11727;52.134;5.052;2022-07-04T12:34:16;24.20;99.90
23116;DHT22;11727;52.134;5.052;2022-07-04T12:36:50;24.30;99.90
23116;DHT22;11727;52.134;5.052;2022-07-04T12:39:30;24.20;99.90
23116;DHT22;11727;52.134;5.052;2022-07-04T12:42:09;24.30;99.90
23116;DHT22;11727;52.134;5.052;2022-07-04T12:44:36;24.20;99.90
23116;DHT22;11727;52.134;5.052;2022-07-04T12:47:06;24.20;99.90
23116;DHT22;11727;52.134;5.052;2022-07-04T12:49:32;24.20;99.90
23116;DHT22;11727;52.134;5.052;2022-07-04T12:52:07;24.00;99.90
23116;DHT22;11727;52.134;5.052;2022-07-04T12:54:33;24.00;99.90
23116;DHT22;11727;52.134;5.052;2022-07-04T12:57:10;24.10;99.90
23116;DHT22;11727;52.134;5.052;2022-07-04T12:59:36;23.90;99.90
23116;DHT22;11727;52.134;5.052;2022-07-04T13:02:02;23.90;99.90
23116;DHT22;11727;52.134;5.052;2022-07-04T13:04:28;23.80;99.90
23116;DHT22;11727;52.134;5.052;2022-07-04T13:06:54;23.60;99.90
23116;DHT22;11727;52.134;5.052;2022-07-04T13:09:19;23.40;99.90
23116;DHT22;11727;52.134;5.052;2022-07-04T13:11:45;23.40;99.90
23116;DHT22;11727;52.134;5.052;2022-07-04T13:14:29;23.50;99.90
23116;DHT22;11727;52.134;5.052;2022-07-04T13:16:58;23.70;99.90
23116;DHT22;11727;52.134;5.052;2022-07-04T13:19:53;23.80;99.90
23116;DHT22;11727;52.134;5.052;2022-07-04T13:22:40;23.90;99.90
23116;DHT22;11727;52.134;5.052;2022-07-04T13:25:27;24.00;99.90
23116;DHT22;11727;52.134;5.052;2022-07-04T13:28:04;24.10;99.90
23116;DHT22;11727;52.134;5.052;2022-07-04T13:30:29;24.20;99.90
23116;DHT22;11727;52.134;5.052;2022-07-04T13:32:55;24.20;99.90
23116;DHT22;11727;52.134;5.052;2022-07-04T13:35:21;24.40;99.90
23116;DHT22;11727;52.134;5.052;2022-07-04T13:37:46;24.30;99.90
23116;DHT22;11727;52.134;5.052;2022-07-04T13:40:12;24.20;99.90
23116;DHT22;11727;52.134;5.052;2022-07-04T13:42:38;24.20;99.90
23116;DHT22;11727;52.134;5.052;2022-07-04T13:45:22;24.10;99.90
23116;DHT22;11727;52.134;5.052;2022-07-04T13:47:47;24.10;99.90
23116;DHT22;11727;52.134;5.052;2022-07-04T13:50:13;24.10;99.90
23116;DHT22;11727;52.134;5.052;2022-07-04T13:52:39;24.10;99.90
23116;DHT22;11727;52.134;5.052;2022-07-04T13:55:04;24.10;99.90
23116;DHT22;11727;52.134;5.052;2022-07-04T13:57:30;24.10;99.90
23116;DHT22;11727;52.134;5.052;2022-07-04T13:59:56;24.10;99.90
23116;DHT22;11727;52.134;5.052;2022-07-04T14:02:24;24.20;99.90
23116;DHT22;11727;52.134;5.052;2022-07-04T14:04:50;24.20;99.90
23116;DHT22;11727;52.134;5.052;2022-07-04T14:07:18;24.30;99.90
23116;DHT22;11727;52.134;5.052;2022-07-04T14:09:44;24.40;99.90
23116;DHT22;11727;52.134;5.052;2022-07-04T14:12:10;24.40;99.90
23116;DHT22;11727;52.134;5.052;2022-07-04T14:14:36;24.40;99.90
23116;DHT22;11727;52.134;5.052;2022-07-04T14:17:01;24.40;99.90
23116;DHT22;11727;52.134;5.052;2022-07-04T14:19:27;24.30;99.90
23116;DHT22;11727;52.134;5.052;2022-07-04T14:21:52;24.20;99.90
23116;DHT22;11727;52.134;5.052;2022-07-04T14:24:18;24.20;99.90
23116;DHT22;11727;52.134;5.052;2022-07-04T14:26:44;24.30;99.90
23116;DHT22;11727;52.134;5.052;2022-07-04T14:29:09;24.30;99.90
23116;DHT22;11727;52.134;5.052;2022-07-04T14:31:35;24.20;99.90
23116;DHT22;11727;52.134;5.052;2022-07-04T14:34:00;24.20;99.90
23116;DHT22;11727;52.134;5.052;2022-07-04T14:36:27;24.20;99.90
23116;DHT22;11727;52.134;5.052;2022-07-04T14:39:03;24.20;99.90
23116;DHT22;11727;52.134;5.052;2022-07-04T14:41:29;24.10;99.90
23116;DHT22;11727;52.134;5.052;2022-07-04T14:43:54;24.00;99.90
23116;DHT22;11727;52.134;5.052;2022-07-04T14:46:20;24.00;99.90
23116;DHT22;11727;52.134;5.052;2022-07-04T14:48:46;23.80;99.90
23116;DHT22;11727;52.134;5.052;2022-07-04T14:51:11;23.90;99.90
23116;DHT22;11727;52.134;5.052;2022-07-04T14:53:37;24.00;99.90
23116;DHT22;11727;52.134;5.052;2022-07-04T14:56:03;24.10;99.90
23116;DHT22;11727;52.134;5.052;2022-07-04T14:58:32;24.10;99.90
23116;DHT22;11727;52.134;5.052;2022-07-04T15:00:57;24.00;99.90
23116;DHT22;11727;52.134;5.052;2022-07-04T15:03:23;24.00;99.90
23116;DHT22;11727;52.134;5.052;2022-07-04T15:05:49;24.10;99.90
23116;DHT22;11727;52.134;5.052;2022-07-04T15:08:15;24.10;99.90
23116;DHT22;11727;52.134;5.052;2022-07-04T15:10:41;24.10;99.90
23116;DHT22;11727;52.134;5.052;2022-07-04T15:13:07;24.10;99.90
23116;DHT22;11727;52.134;5.052;2022-07-04T15:15:33;24.10;99.90
23116;DHT22;11727;52.134;5.052;2022-07-04T15:17:59;24.10;99.90
23116;DHT22;11727;52.134;5.052;2022-07-04T15:20:24;24.10;99.90
23116;DHT22;11727;52.134;5.052;2022-07-04T15:23:09;24.10;99.90
23116;DHT22;11727;52.134;5.052;2022-07-04T15:25:53;24.10;99.90
23116;DHT22;11727;52.134;5.052;2022-07-04T15:28:19;24.20;99.90
23116;DHT22;11727;52.134;5.052;2022-07-04T15:30:44;24.20;99.90
23116;DHT22;11727;52.134;5.052;2022-07-04T15:33:10;24.10;99.90
23116;DHT22;11727;52.134;5.052;2022-07-04T15:35:41;24.10;99.90
23116;DHT22;11727;52.134;5.052;2022-07-04T15:38:07;24.10;99.90
23116;DHT22;11727;52.134;5.052;2022-07-04T15:40:33;24.20;99.90
23116;DHT22;11727;52.134;5.052;2022-07-04T15:42:59;24.20;99.90
23116;DHT22;11727;52.134;5.052;2022-07-04T15:45:24;24.10;99.90
23116;DHT22;11727;52.134;5.052;2022-07-04T15:47:50;24.20;99.90
23116;DHT22;11727;52.134;5.052;2022-07-04T15:50:15;24.20;99.90
23116;DHT22;11727;52.134;5.052;2022-07-04T15:52:41;24.20;99.90
23116;DHT22;11727;52.134;5.052;2022-07-04T15:55:07;24.20;99.90
23116;DHT22;11727;52.134;5.052;2022-07-04T15:57:33;24.10;99.90
23116;DHT22;11727;52.134;5.052;2022-07-04T15:59:58;24.10;99.90
23116;DHT22;11727;52.134;5.052;2022-07-04T16:02:24;24.00;99.90
23116;DHT22;11727;52.134;5.052;2022-07-04T16:04:50;24.00;99.90